Time;durP1;ratioP1;P1;durP2;ratioP2;P2;SDS_P1;SDS_P2;PMS_P1;PMS_P2;Temp;Humidity;BMP_temperature;BMP_pressure;BME280_temperature;BME280_humidity;BME280_pressure;Samples;Min_cycle;Max_cycle;Signal;HPM_P1;HPM_P2
2022/01/07 00:04:46;;;;;;;6.78;3.40;;;7.10;98.10;;;;;;10526474;28;20044;-66
2022/01/07 00:09:46;;;;;;;8.10;4.20;;;7.10;98.00;;;;;;10514814;28;20044;-67
2022/01/07 00:14:47;;;;;;;9.68;3.20;;;7.20;98.10;;;;;;10529075;28;20378;-67
2022/01/07 00:19:48;;;;;;;8.38;3.30;;;7.10;98.30;;;;;;10521024;28;20028;-66
2022/01/07 00:24:49;;;;;;;5.03;3.13;;;7.10;98.00;;;;;;10530546;28;20514;-65
2022/01/07 00:29:50;;;;;;;12.07;3.35;;;7.10;98.00;;;;;;10531555;28;20028;-66
2022/01/07 00:34:51;;;;;;;7.47;2.97;;;7.10;98.00;;;;;;10528126;28;20505;-66
2022/01/07 00:39:52;;;;;;;8.40;2.92;;;7.10;98.00;;;;;;10528808;28;20020;-66
2022/01/07 00:44:53;;;;;;;8.20;2.90;;;7.10;98.00;;;;;;10528412;28;20570;-61
2022/01/07 00:49:54;;;;;;;7.68;2.95;;;7.10;97.90;;;;;;10526859;28;20028;-60
2022/01/07 00:54:55;;;;;;;9.00;3.38;;;7.10;97.90;;;;;;10528602;28;20383;-61
2022/01/07 00:59:56;;;;;;;5.65;2.70;;;7.10;97.90;;;;;;10527938;28;20020;-63
2022/01/07 01:04:56;;;;;;;4.45;2.45;;;7.10;97.90;;;;;;10523992;28;20032;-61
2022/01/07 01:09:58;;;;;;;10.23;3.33;;;7.10;97.90;;;;;;10525416;28;20494;-64
2022/01/07 01:14:58;;;;;;;9.50;2.70;;;7.00;97.90;;;;;;10526924;28;20028;-66
2022/01/07 01:19:59;;;;;;;9.10;2.97;;;7.10;97.90;;;;;;10516673;28;20559;-67
2022/01/07 01:25:00;;;;;;;7.90;2.65;;;7.00;97.90;;;;;;10527611;28;20125;-64
2022/01/07 01:30:07;;;;;;;5.03;2.60;;;7.00;97.90;;;;;;10510584;28;20035;-64
2022/01/07 01:35:08;;;;;;;4.38;2.97;;;7.00;98.00;;;;;;10526204;28;20043;-66
2022/01/07 01:40:10;;;;;;;9.57;3.22;;;7.00;98.00;;;;;;10526277;28;20028;-66
2022/01/07 01:45:15;;;;;;;7.00;3.33;;;7.00;98.00;;;;;;10523352;28;20032;-64
2022/01/07 01:50:16;;;;;;;6.22;2.53;;;7.10;98.10;;;;;;10528825;28;20036;-64
2022/01/07 01:55:18;;;;;;;7.28;3.30;;;7.00;98.10;;;;;;10533861;28;20028;-65
2022/01/07 02:00:21;;;;;;;9.15;2.97;;;7.00;98.10;;;;;;10533480;28;20023;-65
2022/01/07 02:05:22;;;;;;;6.95;3.35;;;7.40;98.20;;;;;;10519179;28;20048;-67
2022/01/07 02:10:23;;;;;;;9.63;3.03;;;6.90;98.10;;;;;;10523865;28;20538;-65
2022/01/07 02:15:24;;;;;;;6.88;3.47;;;6.90;98.10;;;;;;10530350;28;20038;-64
2022/01/07 02:20:28;;;;;;;6.38;3.03;;;6.90;98.10;;;;;;10530000;28;20035;-67
2022/01/07 02:25:29;;;;;;;5.45;3.05;;;6.90;98.20;;;;;;10533505;28;20044;-67
2022/01/07 02:30:31;;;;;;;7.05;3.30;;;6.90;98.20;;;;;;10532603;28;20023;-64
2022/01/07 02:35:34;;;;;;;5.45;3.15;;;6.90;98.20;;;;;;10520413;28;20026;-67
2022/01/07 02:40:35;;;;;;;8.93;3.50;;;6.90;98.20;;;;;;10532027;28;20062;-66
2022/01/07 02:45:35;;;;;;;9.93;4.30;;;6.90;98.20;;;;;;10530240;28;20147;-68
2022/01/07 02:50:38;;;;;;;9.30;3.97;;;6.90;98.20;;;;;;10531584;28;20028;-67
2022/01/07 02:55:40;;;;;;;7.20;3.67;;;6.90;98.20;;;;;;10531739;28;20028;-67
2022/01/07 03:00:41;;;;;;;6.68;3.63;;;7.10;98.30;;;;;;10529089;28;20047;-66
2022/01/07 03:05:42;;;;;;;6.88;4.03;;;7.00;98.30;;;;;;10517445;28;20611;-66
2022/01/07 03:10:43;;;;;;;8.93;4.05;;;7.20;98.30;;;;;;10528949;28;20430;-65
2022/01/07 03:15:43;;;;;;;5.20;3.40;;;6.90;98.20;;;;;;10526514;28;20017;-67
2022/01/07 03:20:44;;;;;;;6.13;3.33;;;6.80;98.20;;;;;;10521346;28;20024;-66
2022/01/07 03:25:45;;;;;;;7.30;3.55;;;7.20;98.30;;;;;;10533056;28;20040;-66
2022/01/07 03:30:47;;;;;;;8.52;3.90;;;6.80;98.20;;;;;;10521835;28;20490;-67
2022/01/07 03:35:48;;;;;;;7.88;3.35;;;6.80;98.20;;;;;;10523970;28;20024;-68
2022/01/07 03:40:49;;;;;;;8.27;3.47;;;6.80;98.20;;;;;;10529438;28;20024;-65
2022/01/07 03:45:50;;;;;;;8.80;3.70;;;6.80;98.20;;;;;;10528940;28;20032;-61
2022/01/07 03:50:50;;;;;;;8.68;4.05;;;6.80;98.20;;;;;;10529625;28;20040;-62
2022/01/07 03:55:52;;;;;;;6.88;3.55;;;6.80;98.20;;;;;;10528849;28;20028;-64
2022/01/07 04:00:53;;;;;;;6.35;3.28;;;6.90;98.30;;;;;;10527478;28;20020;-64
2022/01/07 04:05:54;;;;;;;5.95;3.33;;;6.80;98.20;;;;;;10527250;28;20039;-62
2022/01/07 04:10:55;;;;;;;6.43;3.63;;;6.80;98.20;;;;;;10526878;28;20044;-62
2022/01/07 04:15:56;;;;;;;5.80;3.30;;;6.80;98.20;;;;;;10522104;28;20483;-61
2022/01/07 04:20:56;;;;;;;4.28;2.83;;;6.80;98.20;;;;;;10521143;28;20207;-61
2022/01/07 04:25:57;;;;;;;5.03;3.38;;;6.90;98.30;;;;;;10531219;28;20032;-64
2022/01/07 04:30:58;;;;;;;4.50;3.20;;;6.80;98.20;;;;;;10527875;28;20031;-67
2022/01/07 04:36:00;;;;;;;5.00;3.28;;;6.80;98.20;;;;;;10527323;28;20039;-66
2022/01/07 04:41:00;;;;;;;5.72;2.92;;;7.00;98.30;;;;;;10528009;28;20012;-66
2022/01/07 04:46:01;;;;;;;6.00;3.47;;;6.80;98.20;;;;;;10527424;28;20044;-62
2022/01/07 04:51:02;;;;;;;5.03;3.08;;;6.80;98.30;;;;;;10527231;28;20048;-67
2022/01/07 04:56:03;;;;;;;10.20;3.67;;;6.80;98.30;;;;;;10527078;28;20540;-64
2022/01/07 05:01:04;;;;;;;6.20;3.15;;;6.80;98.30;;;;;;10524301;28;20020;-64
2022/01/07 05:06:43;;;;;;;4.97;3.10;;;6.80;98.30;;;;;;10524070;28;20028;-65
2022/01/07 05:11:25;;;;;;;8.43;3.33;;;6.80;98.30;;;;;;10525009;28;20122;-66
2022/01/07 05:16:28;;;;;;;4.72;2.83;;;6.70;98.30;;;;;;10527071;28;20089;-62
2022/01/07 05:21:30;;;;;;;4.10;3.00;;;7.00;98.30;;;;;;10516432;28;20052;-65
2022/01/07 05:26:31;;;;;;;9.55;3.40;;;6.70;98.20;;;;;;10538060;28;20201;-65
2022/01/07 05:31:32;;;;;;;4.75;2.58;;;6.70;98.30;;;;;;10535136;28;20107;-67
2022/01/07 05:36:33;;;;;;;6.38;3.30;;;6.70;98.30;;;;;;10532767;28;20453;-63
2022/01/07 05:41:34;;;;;;;6.72;3.13;;;7.60;98.50;;;;;;10533746;28;20459;-60
2022/01/07 05:46:34;;;;;;;4.40;2.75;;;6.80;98.30;;;;;;10533192;28;20051;-65
2022/01/07 05:51:35;;;;;;;6.00;3.28;;;6.70;98.30;;;;;;10533330;28;20035;-63
2022/01/07 05:56:36;;;;;;;4.53;2.90;;;6.80;98.30;;;;;;10534571;28;20055;-62
2022/01/07 06:01:37;;;;;;;4.03;2.30;;;6.70;98.30;;;;;;10530878;28;20032;-64
2022/01/07 06:06:38;;;;;;;4.43;2.67;;;6.70;98.30;;;;;;10531101;28;20046;-63
2022/01/07 06:11:39;;;;;;;4.05;2.50;;;6.80;98.30;;;;;;10530688;28;20367;-61
2022/01/07 06:16:39;;;;;;;8.05;2.80;;;6.70;98.30;;;;;;10530715;28;20039;-66
2022/01/07 06:21:40;;;;;;;6.45;2.65;;;6.80;98.30;;;;;;10520077;28;20024;-62
2022/01/07 06:26:41;;;;;;;4.47;2.75;;;6.80;98.30;;;;;;10516712;28;20506;-62
2022/01/07 06:31:42;;;;;;;3.50;2.30;;;6.90;98.30;;;;;;10531203;28;20043;-61
2022/01/07 06:36:42;;;;;;;5.22;2.63;;;6.80;98.30;;;;;;10530041;28;20055;-62
2022/01/07 06:41:43;;;;;;;3.65;2.20;;;6.80;98.30;;;;;;10530803;28;20055;-60
2022/01/07 06:46:44;;;;;;;2.95;2.55;;;7.10;98.40;;;;;;10530969;28;20091;-63
2022/01/07 06:51:45;;;;;;;4.53;2.53;;;6.80;98.30;;;;;;10533356;28;20392;-63
2022/01/07 06:56:46;;;;;;;4.70;2.78;;;6.80;98.30;;;;;;10532987;28;20032;-68
2022/01/07 07:01:47;;;;;;;5.35;2.60;;;6.80;98.30;;;;;;10530596;28;20078;-63
2022/01/07 07:06:48;;;;;;;3.35;2.47;;;6.80;98.30;;;;;;10531122;28;20044;-62
2022/01/07 07:11:49;;;;;;;3.78;2.53;;;6.80;98.30;;;;;;10530553;28;20044;-63
2022/01/07 07:16:49;;;;;;;4.43;2.80;;;6.80;98.30;;;;;;10530117;28;20119;-64
2022/01/07 07:21:50;;;;;;;5.07;3.10;;;6.80;98.30;;;;;;10519291;28;20016;-63
2022/01/07 07:26:51;;;;;;;4.45;2.90;;;6.80;98.40;;;;;;10533385;28;20146;-61
2022/01/07 07:31:55;;;;;;;4.80;2.97;;;6.80;98.40;;;;;;10530093;28;20087;-64
2022/01/07 07:36:56;;;;;;;5.15;3.33;;;6.80;98.40;;;;;;10529962;28;20111;-63
2022/01/07 07:41:57;;;;;;;5.03;3.20;;;6.80;98.40;;;;;;10530156;28;20123;-62
2022/01/07 07:46:58;;;;;;;4.70;3.40;;;6.80;98.40;;;;;;10540000;28;20036;-63
2022/01/07 07:51:59;;;;;;;5.20;3.70;;;6.80;98.40;;;;;;10531000;28;20393;-64
2022/01/07 07:56:59;;;;;;;5.72;3.63;;;6.80;98.40;;;;;;10529447;28;20118;-65
2022/01/07 08:02:01;;;;;;;10.35;4.10;;;6.90;98.50;;;;;;10524416;28;20024;-68
2022/01/07 08:07:02;;;;;;;6.45;3.85;;;6.90;98.50;;;;;;10527938;28;20425;-64
2022/01/07 08:12:16;;;;;;;5.65;3.85;;;6.90;98.50;;;;;;10528115;28;20388;-64
2022/01/07 08:17:17;;;;;;;6.35;4.15;;;6.90;98.50;;;;;;10522127;28;20496;-70
2022/01/07 08:22:18;;;;;;;8.27;4.80;;;6.90;98.50;;;;;;10496434;28;20029;-62
2022/01/07 08:27:22;;;;;;;6.80;4.25;;;6.90;98.50;;;;;;10502064;28;20040;-61
2022/01/07 08:37:42;;;;;;;5.97;4.15;;;6.90;98.50;;;;;;10498184;28;20683;-58
2022/01/07 08:42:42;;;;;;;7.30;4.82;;;7.00;98.60;;;;;;10497972;28;20123;-61
2022/01/07 08:47:43;;;;;;;7.28;4.68;;;7.00;98.50;;;;;;10497223;28;20037;-60
2022/01/07 08:52:44;;;;;;;10.60;4.55;;;7.00;98.50;;;;;;10494577;28;20013;-60
2022/01/07 08:57:45;;;;;;;11.32;5.53;;;7.00;98.60;;;;;;10498356;28;20054;-64
2022/01/07 09:02:46;;;;;;;8.75;5.57;;;7.10;98.60;;;;;;10536911;28;20238;-61
2022/01/07 09:07:47;;;;;;;7.63;5.43;;;7.10;98.70;;;;;;10538023;28;20032;-64
2022/01/07 09:12:48;;;;;;;12.30;5.70;;;7.10;98.70;;;;;;10525303;28;20517;-67
2022/01/07 09:17:49;;;;;;;9.43;6.20;;;7.10;98.70;;;;;;10534265;28;20066;-70
2022/01/07 09:22:50;;;;;;;8.93;6.07;;;7.30;99.00;;;;;;10526997;28;20393;-70
2022/01/07 09:27:51;;;;;;;11.15;6.55;;;7.10;98.70;;;;;;10535047;28;20056;-63
2022/01/07 09:32:52;;;;;;;10.52;6.35;;;7.30;98.90;;;;;;10535536;28;20056;-63
2022/01/07 09:37:53;;;;;;;13.68;6.90;;;7.10;98.90;;;;;;10534652;28;20028;-61
2022/01/07 09:42:59;;;;;;;10.93;6.88;;;7.10;99.00;;;;;;10533470;28;20475;-65
2022/01/07 09:48:03;;;;;;;11.20;6.50;;;7.10;99.00;;;;;;10533131;28;20132;-64
2022/01/07 09:53:06;;;;;;;12.10;6.25;;;7.20;99.00;;;;;;10510417;28;20077;-64
2022/01/07 09:58:07;;;;;;;9.45;6.18;;;7.30;99.10;;;;;;10529776;28;20371;-62
2022/01/07 10:03:09;;;;;;;11.50;6.13;;;7.20;99.00;;;;;;10505395;28;20028;-60
2022/01/07 10:08:25;;;;;;;13.02;6.13;;;7.20;99.10;;;;;;10524277;28;20039;-66
2022/01/07 10:13:26;;;;;;;10.07;5.70;;;7.20;99.20;;;;;;10529285;28;20048;-62
2022/01/07 10:18:37;;;;;;;11.05;5.10;;;7.30;99.20;;;;;;10518808;28;20501;-62
2022/01/07 10:23:38;;;;;;;7.78;5.10;;;7.30;99.30;;;;;;10531134;28;20486;-61
2022/01/07 10:28:39;;;;;;;12.60;5.30;;;7.40;99.20;;;;;;10532883;28;20038;-62
2022/01/07 10:33:41;;;;;;;11.57;4.75;;;7.40;99.30;;;;;;10532691;28;20030;-60
2022/01/07 10:39:04;;;;;;;10.88;4.95;;;7.50;99.30;;;;;;10532603;28;20067;-63
2022/01/07 10:44:08;;;;;;;7.38;4.70;;;7.40;99.40;;;;;;10525774;28;20043;-62
2022/01/07 10:49:09;;;;;;;9.25;5.18;;;7.50;99.40;;;;;;10510881;28;20561;-70
2022/01/07 10:54:16;;;;;;;10.93;4.53;;;7.50;99.40;;;;;;10515344;28;20096;-71
2022/01/07 10:59:21;;;;;;;14.93;5.72;;;7.50;99.50;;;;;;10511633;28;20496;-71
2022/01/07 11:04:30;;;;;;;14.32;5.07;;;7.50;99.50;;;;;;10518137;28;20028;-67
2022/01/07 11:09:31;;;;;;;11.23;5.30;;;7.50;99.50;;;;;;10508777;28;20311;-63
2022/01/07 11:14:35;;;;;;;11.68;4.70;;;7.40;99.60;;;;;;10524365;28;20435;-60
2022/01/07 11:19:38;;;;;;;8.95;3.47;;;7.40;99.60;;;;;;10522825;28;20107;-67
2022/01/07 11:24:43;;;;;;;4.95;2.50;;;7.40;99.70;;;;;;10528859;28;20050;-70
2022/01/07 11:29:54;;;;;;;6.18;2.20;;;7.40;99.50;;;;;;10497471;28;20031;-73
2022/01/07 11:34:56;;;;;;;4.50;2.03;;;7.40;99.50;;;;;;10507093;28;20111;-68
2022/01/07 11:39:57;;;;;;;7.63;2.20;;;7.50;99.60;;;;;;10521840;28;20152;-69
2022/01/07 11:44:57;;;;;;;5.90;1.50;;;7.30;99.60;;;;;;10510316;28;20174;-61
2022/01/07 11:50:07;;;;;;;1.83;1.25;;;7.30;99.60;;;;;;10529951;28;20374;-60
2022/01/07 11:55:23;;;;;;;1.90;1.20;;;7.40;99.60;;;;;;10510785;28;20171;-63
2022/01/07 12:00:49;;;;;;;4.45;1.33;;;7.40;99.60;;;;;;10529886;28;20264;-64
2022/01/07 12:05:50;;;;;;;2.22;1.20;;;7.40;99.50;;;;;;10516157;28;20040;-63
2022/01/07 12:11:10;;;;;;;2.63;0.88;;;7.40;99.50;;;;;;10527402;28;20147;-67
2022/01/07 12:16:11;;;;;;;2.65;0.93;;;7.40;99.60;;;;;;10528154;28;20062;-61
2022/01/07 12:21:12;;;;;;;3.28;1.08;;;7.40;99.40;;;;;;10509119;28;20028;-62
2022/01/07 12:26:12;;;;;;;3.92;0.90;;;7.50;99.40;;;;;;10512395;28;20036;-64
2022/01/07 12:31:13;;;;;;;4.25;1.08;;;7.50;99.40;;;;;;10519578;28;20463;-64
2022/01/07 12:36:27;;;;;;;2.78;1.00;;;7.50;99.40;;;;;;10508311;28;20123;-65
2022/01/07 12:41:28;;;;;;;2.03;1.00;;;7.50;99.40;;;;;;10526692;28;20060;-65
2022/01/07 12:46:29;;;;;;;2.15;0.90;;;7.50;99.30;;;;;;10528280;28;20132;-63
2022/01/07 12:51:30;;;;;;;1.92;1.08;;;7.50;99.30;;;;;;10527995;28;20033;-62
2022/01/07 12:56:35;;;;;;;2.72;1.00;;;7.60;99.30;;;;;;10527654;28;20024;-66
2022/01/07 13:01:36;;;;;;;3.97;0.90;;;7.60;99.30;;;;;;10513026;28;20029;-65
2022/01/07 13:06:48;;;;;;;4.60;1.23;;;7.60;99.20;;;;;;10517303;28;20036;-66
2022/01/07 13:11:50;;;;;;;5.53;1.92;;;7.60;99.20;;;;;;10526471;28;20436;-65
2022/01/07 13:16:53;;;;;;;2.08;1.13;;;7.60;99.50;;;;;;10526611;28;20024;-63
2022/01/07 13:21:54;;;;;;;4.60;1.70;;;7.60;99.20;;;;;;10525946;28;20043;-64
2022/01/07 13:27:00;;;;;;;3.85;1.45;;;7.70;99.20;;;;;;10528299;28;20024;-67
2022/01/07 13:32:05;;;;;;;3.95;1.77;;;7.60;99.20;;;;;;10523994;28;20028;-66
2022/01/07 13:37:14;;;;;;;2.35;1.50;;;7.60;99.20;;;;;;10519205;28;20081;-66
2022/01/07 13:42:26;;;;;;;5.60;2.03;;;7.60;99.30;;;;;;10527907;28;20032;-67
2022/01/07 13:47:31;;;;;;;2.25;1.50;;;7.60;99.30;;;;;;10535571;28;20389;-67
2022/01/07 13:52:33;;;;;;;3.50;1.80;;;7.60;99.30;;;;;;10535525;28;20024;-64
2022/01/07 13:57:34;;;;;;;3.35;1.70;;;7.60;99.30;;;;;;10532597;28;20524;-66
2022/01/07 14:02:35;;;;;;;2.25;1.77;;;7.60;99.30;;;;;;10530255;28;20017;-66
2022/01/07 14:07:56;;;;;;;3.13;1.58;;;7.60;99.30;;;;;;10519237;28;20431;-67
2022/01/07 14:13:17;;;;;;;4.00;1.90;;;7.60;99.30;;;;;;10532537;28;20036;-65
2022/01/07 14:18:19;;;;;;;3.40;2.00;;;7.60;99.40;;;;;;10530063;28;20016;-65
2022/01/07 14:23:22;;;;;;;4.70;2.00;;;7.60;99.40;;;;;;10524245;28;20024;-67
2022/01/07 14:28:23;;;;;;;4.82;2.08;;;7.60;99.40;;;;;;10531838;28;20032;-67
2022/01/07 14:33:24;;;;;;;5.57;1.80;;;7.50;99.40;;;;;;10530830;28;20381;-66
2022/01/07 14:38:26;;;;;;;2.78;1.95;;;7.50;99.40;;;;;;10531671;28;20059;-66
2022/01/07 14:43:27;;;;;;;5.80;2.20;;;7.60;99.40;;;;;;10527163;28;20039;-66
2022/01/07 14:48:29;;;;;;;6.70;2.17;;;7.70;99.40;;;;;;10516351;28;20383;-66
2022/01/07 14:53:29;;;;;;;4.10;2.00;;;7.60;99.40;;;;;;10522546;28;20028;-65
2022/01/07 14:58:30;;;;;;;3.65;2.00;;;7.50;99.40;;;;;;10530338;28;20024;-66
2022/01/07 15:03:32;;;;;;;4.00;1.95;;;7.60;99.50;;;;;;10530012;28;20107;-61
2022/01/07 15:08:33;;;;;;;3.00;1.63;;;7.60;99.50;;;;;;10530194;28;20044;-66
2022/01/07 15:13:34;;;;;;;3.92;1.63;;;7.50;99.50;;;;;;10489787;28;20064;-66
2022/01/07 15:18:35;;;;;;;3.67;1.55;;;7.50;99.50;;;;;;10462634;28;20020;-66
2022/01/07 15:23:36;;;;;;;3.03;1.30;;;7.60;99.50;;;;;;10492533;28;20393;-66
2022/01/07 15:28:37;;;;;;;5.13;1.60;;;7.50;99.50;;;;;;10463134;28;20525;-63
2022/01/07 15:33:37;;;;;;;5.25;1.58;;;7.50;99.40;;;;;;10454531;28;20058;-66
2022/01/07 15:38:38;;;;;;;5.75;1.40;;;7.50;99.40;;;;;;10458473;28;20036;-66
2022/01/07 15:43:39;;;;;;;3.35;1.50;;;7.40;99.40;;;;;;10451823;28;20028;-66
2022/01/07 15:48:40;;;;;;;3.97;1.52;;;7.40;99.40;;;;;;10472196;28;20037;-61
2022/01/07 15:53:40;;;;;;;2.95;1.40;;;7.40;99.40;;;;;;10449942;28;20023;-60
2022/01/07 15:58:41;;;;;;;3.75;1.45;;;7.40;99.40;;;;;;10449479;28;20090;-66
2022/01/07 16:03:43;;;;;;;2.78;1.10;;;7.40;99.40;;;;;;10461800;28;20389;-65
2022/01/07 16:08:44;;;;;;;4.40;1.35;;;7.60;99.50;;;;;;10481187;28;20135;-66
2022/01/07 16:13:45;;;;;;;3.42;1.42;;;7.40;99.40;;;;;;10511156;28;20127;-66
2022/01/07 16:18:45;;;;;;;3.45;1.30;;;7.40;99.40;;;;;;10534510;28;20059;-66
2022/01/07 16:23:46;;;;;;;2.88;1.20;;;7.40;99.40;;;;;;10530825;28;20486;-66
2022/01/07 16:28:47;;;;;;;4.43;1.15;;;7.40;99.40;;;;;;10528011;28;20072;-65
2022/01/07 16:33:48;;;;;;;6.00;1.25;;;7.40;99.40;;;;;;10528562;28;20020;-66
2022/01/07 16:38:49;;;;;;;3.05;1.17;;;7.40;99.40;;;;;;10528304;28;20030;-66
2022/01/07 16:43:49;;;;;;;3.90;1.30;;;7.40;99.40;;;;;;10528098;28;20470;-64
2022/01/07 16:48:50;;;;;;;2.72;1.20;;;7.30;99.40;;;;;;10527470;28;20036;-66
2022/01/07 16:53:51;;;;;;;1.90;0.80;;;7.30;99.60;;;;;;10527521;28;20620;-67
2022/01/07 16:58:51;;;;;;;3.67;1.10;;;7.30;99.60;;;;;;10527323;28;20036;-67
2022/01/07 17:03:54;;;;;;;1.92;0.93;;;7.30;99.40;;;;;;10524960;28;20137;-64
2022/01/07 17:08:55;;;;;;;2.88;0.95;;;7.30;99.40;;;;;;10525598;28;20164;-66
2022/01/07 17:13:55;;;;;;;2.08;0.98;;;7.20;99.40;;;;;;10526877;28;20076;-67
2022/01/07 17:18:56;;;;;;;1.42;0.80;;;7.20;99.40;;;;;;10529342;28;20501;-66
2022/01/07 17:23:58;;;;;;;3.15;1.20;;;7.20;99.40;;;;;;10528372;28;20490;-63
2022/01/07 17:28:58;;;;;;;4.60;1.10;;;7.20;99.40;;;;;;10535119;28;20035;-65
2022/01/07 17:34:00;;;;;;;4.30;1.05;;;7.20;99.40;;;;;;10534989;28;20031;-67
2022/01/07 17:39:04;;;;;;;2.60;0.88;;;7.20;99.30;;;;;;10535937;28;20028;-65
2022/01/07 17:44:05;;;;;;;2.63;1.13;;;7.20;99.40;;;;;;10530373;28;20453;-64
2022/01/07 17:49:06;;;;;;;2.38;1.30;;;7.20;99.30;;;;;;10518210;28;20044;-68
2022/01/07 17:54:07;;;;;;;3.75;1.13;;;7.20;99.30;;;;;;10513776;28;20037;-64
2022/01/07 17:59:08;;;;;;;3.28;1.40;;;7.20;99.30;;;;;;10517369;28;20034;-61
2022/01/07 18:04:10;;;;;;;4.43;1.10;;;7.20;99.30;;;;;;10522077;28;20031;-64
2022/01/07 18:09:12;;;;;;;2.88;0.95;;;7.20;99.30;;;;;;10531677;28;20047;-64
2022/01/07 18:14:13;;;;;;;5.82;1.10;;;7.20;99.30;;;;;;10523618;28;20050;-65
2022/01/07 18:19:14;;;;;;;3.88;1.10;;;7.20;99.30;;;;;;10528420;28;20033;-63
2022/01/07 18:24:14;;;;;;;3.05;0.90;;;7.10;99.20;;;;;;10514751;28;20421;-66
2022/01/07 18:29:15;;;;;;;1.95;1.00;;;7.10;99.20;;;;;;10499419;28;20039;-66
2022/01/07 18:34:17;;;;;;;4.10;0.90;;;7.10;99.20;;;;;;10498116;28;20140;-65
2022/01/07 18:39:18;;;;;;;2.80;0.80;;;7.10;99.20;;;;;;10498856;28;20042;-66
2022/01/07 18:44:18;;;;;;;3.47;1.20;;;7.20;99.50;;;;;;10496171;28;20372;-70
2022/01/07 18:49:19;;;;;;;5.93;1.15;;;7.10;99.20;;;;;;10498352;28;20059;-68
2022/01/07 18:54:22;;;;;;;2.95;1.00;;;7.30;99.20;;;;;;10478434;28;20033;-61
2022/01/07 18:59:23;;;;;;;2.20;0.98;;;7.00;99.10;;;;;;10496073;28;20063;-61
2022/01/07 19:04:23;;;;;;;3.28;1.10;;;7.10;99.10;;;;;;10501164;28;20100;-66
2022/01/07 19:09:24;;;;;;;3.83;1.30;;;7.00;99.10;;;;;;10514867;28;20058;-67
2022/01/07 19:14:25;;;;;;;3.58;0.90;;;7.00;99.10;;;;;;10521956;28;20113;-67
2022/01/07 19:19:26;;;;;;;3.13;1.00;;;7.00;99.10;;;;;;10515210;28;20024;-66
2022/01/07 19:24:27;;;;;;;3.03;1.00;;;7.00;99.10;;;;;;10525550;28;20031;-67
2022/01/07 19:29:28;;;;;;;3.53;1.20;;;7.00;99.10;;;;;;10522305;28;20040;-66
2022/01/07 19:34:28;;;;;;;4.10;1.10;;;7.00;99.10;;;;;;10522319;28;20031;-64
2022/01/07 19:39:29;;;;;;;5.30;1.23;;;7.00;99.10;;;;;;10520169;28;20048;-67
2022/01/07 19:44:30;;;;;;;4.25;1.23;;;7.00;99.10;;;;;;10509001;28;20032;-66
2022/01/07 19:49:31;;;;;;;3.10;1.00;;;7.00;99.10;;;;;;10512109;28;20028;-66
2022/01/07 19:54:32;;;;;;;5.72;1.35;;;7.00;99.10;;;;;;10513538;28;20115;-64
2022/01/07 19:59:32;;;;;;;3.88;0.98;;;7.00;99.10;;;;;;10501964;28;20028;-66
2022/01/07 20:04:36;;;;;;;4.47;1.20;;;7.00;99.10;;;;;;10520026;28;20402;-65
2022/01/07 20:09:37;;;;;;;2.38;1.17;;;7.00;99.10;;;;;;10513396;28;20036;-67
2022/01/07 20:14:38;;;;;;;2.60;1.25;;;7.00;99.00;;;;;;10500933;28;20036;-66
2022/01/07 20:19:39;;;;;;;2.70;1.20;;;7.00;99.00;;;;;;10507677;28;20032;-67
2022/01/07 20:24:40;;;;;;;2.60;1.75;;;7.30;99.10;;;;;;10506735;28;20020;-67
2022/01/07 20:29:41;;;;;;;1.85;1.10;;;7.00;99.00;;;;;;10505565;28;20131;-61
2022/01/07 20:34:41;;;;;;;2.75;1.35;;;7.00;99.00;;;;;;10513468;28;20030;-66
2022/01/07 20:39:42;;;;;;;3.15;1.00;;;6.90;99.00;;;;;;10497524;28;20493;-65
2022/01/07 20:44:43;;;;;;;1.85;1.00;;;6.90;99.00;;;;;;10512259;28;20021;-67
2022/01/07 20:49:44;;;;;;;3.45;1.20;;;6.90;99.00;;;;;;10497772;28;20379;-66
2022/01/07 20:54:45;;;;;;;4.88;1.25;;;6.90;99.00;;;;;;10503687;28;20034;-67
2022/01/07 20:59:45;;;;;;;1.88;0.90;;;6.90;99.00;;;;;;10502720;28;20020;-66
2022/01/07 21:04:46;;;;;;;3.47;1.25;;;6.90;99.00;;;;;;10516321;28;20413;-64
2022/01/07 21:09:47;;;;;;;2.03;1.08;;;6.90;99.00;;;;;;10512131;28;20044;-67
2022/01/07 21:14:47;;;;;;;4.80;1.10;;;6.90;99.00;;;;;;10505619;28;20040;-66
2022/01/07 21:19:48;;;;;;;3.35;1.40;;;6.90;99.00;;;;;;10513939;28;20553;-65
2022/01/07 21:24:50;;;;;;;4.90;1.40;;;6.90;99.00;;;;;;10518560;28;20027;-67
2022/01/07 21:29:51;;;;;;;3.88;1.60;;;6.90;99.00;;;;;;10519536;28;20043;-68
2022/01/07 21:34:56;;;;;;;5.35;1.75;;;6.80;99.00;;;;;;10511864;28;20020;-67
2022/01/07 21:39:56;;;;;;;2.75;1.60;;;6.90;99.00;;;;;;10515771;28;20037;-67
2022/01/07 21:44:57;;;;;;;3.35;1.50;;;6.90;99.00;;;;;;10497181;28;20424;-67
2022/01/07 21:49:58;;;;;;;4.47;1.80;;;6.80;98.90;;;;;;10512389;28;20039;-66
2022/01/07 21:54:59;;;;;;;3.05;1.90;;;6.80;98.90;;;;;;10505611;28;20008;-67
2022/01/07 21:59:59;;;;;;;4.55;2.03;;;6.80;98.90;;;;;;10514252;28;20200;-67
2022/01/07 22:05:00;;;;;;;3.10;1.63;;;6.80;98.90;;;;;;10511111;28;20234;-69
2022/01/07 22:10:01;;;;;;;3.95;1.65;;;6.90;99.00;;;;;;10519244;28;20032;-69
2022/01/07 22:15:02;;;;;;;6.22;1.98;;;6.90;99.00;;;;;;10516293;28;20044;-66
2022/01/07 22:20:03;;;;;;;2.83;1.60;;;6.80;98.90;;;;;;10526883;28;20066;-68
2022/01/07 22:25:06;;;;;;;2.75;1.40;;;6.80;98.90;;;;;;10520576;28;20027;-65
2022/01/07 22:30:10;;;;;;;5.40;1.90;;;6.80;98.90;;;;;;10525266;28;20024;-67
2022/01/07 22:35:12;;;;;;;5.00;2.13;;;6.80;98.90;;;;;;10517590;28;20485;-67
2022/01/07 22:40:13;;;;;;;3.10;1.83;;;6.80;98.90;;;;;;10520695;28;20493;-67
2022/01/07 22:45:14;;;;;;;3.35;1.60;;;6.80;98.90;;;;;;10523746;28;20044;-68
2022/01/07 22:50:15;;;;;;;3.33;1.90;;;6.80;98.90;;;;;;10531285;28;20494;-68
2022/01/07 22:55:16;;;;;;;3.50;1.95;;;6.70;98.80;;;;;;10525779;28;20016;-68
2022/01/07 23:00:29;;;;;;;2.15;1.27;;;6.80;98.90;;;;;;10523426;28;20596;-68
2022/01/07 23:05:32;;;;;;;5.18;1.83;;;6.80;98.80;;;;;;10518398;28;20321;-68
2022/01/07 23:10:33;;;;;;;6.20;1.80;;;6.80;98.90;;;;;;10529776;28;20103;-68
2022/01/07 23:15:33;;;;;;;3.67;1.98;;;6.80;98.80;;;;;;10516261;28;20481;-68
2022/01/07 23:20:36;;;;;;;3.60;2.05;;;6.80;98.80;;;;;;10518290;28;20298;-67
2022/01/07 23:25:37;;;;;;;5.30;1.77;;;6.70;98.80;;;;;;10520361;28;20067;-65
2022/01/07 23:30:39;;;;;;;3.55;1.92;;;6.70;98.80;;;;;;10507863;28;20024;-66
2022/01/07 23:35:44;;;;;;;4.82;1.70;;;6.70;98.80;;;;;;10516740;28;20381;-67
2022/01/07 23:40:45;;;;;;;3.53;1.80;;;6.70;98.80;;;;;;10520937;28;20093;-66
2022/01/07 23:45:46;;;;;;;3.72;1.45;;;6.70;98.80;;;;;;10523120;28;20090;-67
2022/01/07 23:50:48;;;;;;;7.53;1.67;;;7.20;98.90;;;;;;10529707;28;20436;-66
2022/01/07 23:55:49;;;;;;;2.70;1.42;;;6.70;98.80;;;;;;10511429;28;20546;-67
